Time;durP1;ratioP1;P1;durP2;ratioP2;P2;SDS_P1;SDS_P2;PMS_P1;PMS_P2;Temp;Humidity;BMP_temperature;BMP_pressure;BME280_temperature;BME280_humidity;BME280_pressure;Samples;Min_cycle;Max_cycle;Signal;HPM_P1;HPM_P2
2022/03/13 00:03:33;;;;;;;4.20;3.83;;;21.70;51.80;;;;;;4981293;29;20461;-84
2022/03/13 00:06:11;;;;;;;5.40;3.70;;;21.70;51.80;;;;;;4965014;29;20378;-85
2022/03/13 00:09:15;;;;;;;3.50;3.20;;;21.70;51.80;;;;;;4963324;29;20426;-85
2022/03/13 00:12:08;;;;;;;4.10;3.70;;;21.70;51.80;;;;;;4964796;29;20402;-85
2022/03/13 00:14:47;;;;;;;3.87;3.47;;;21.70;51.80;;;;;;4947835;29;20466;-85
2022/03/13 00:17:19;;;;;;;3.90;3.50;;;21.60;51.70;;;;;;4961732;29;20426;-85
2022/03/13 00:19:49;;;;;;;4.27;3.63;;;21.70;51.80;;;;;;4946269;29;20429;-85
2022/03/13 00:25:14;;;;;;;4.03;3.63;;;21.70;51.80;;;;;;5036565;23;20492;-86
2022/03/13 00:27:40;;;;;;;4.27;3.63;;;21.60;51.70;;;;;;4991999;28;20464;-86
2022/03/13 00:30:11;;;;;;;3.20;2.90;;;21.70;51.80;;;;;;4975627;28;21041;-85
2022/03/13 00:32:37;;;;;;;3.60;3.10;;;21.70;52.30;;;;;;4976974;28;20170;-86
2022/03/13 00:35:03;;;;;;;4.07;3.40;;;21.60;51.70;;;;;;4991639;28;20535;-87
2022/03/13 00:37:29;;;;;;;3.90;3.50;;;21.70;51.70;;;;;;4993384;28;20417;-86
2022/03/13 00:40:00;;;;;;;3.97;3.57;;;21.70;51.70;;;;;;4975439;28;20527;-86
2022/03/13 00:42:26;;;;;;;3.67;3.30;;;21.70;51.70;;;;;;4975008;28;20413;-87
2022/03/13 00:44:52;;;;;;;3.67;3.33;;;21.70;51.70;;;;;;4993124;28;20432;-87
2022/03/13 00:47:24;;;;;;;4.03;3.33;;;21.70;51.70;;;;;;4970027;28;20194;-87
2022/03/13 00:49:50;;;;;;;3.53;2.97;;;21.70;52.20;;;;;;4976643;28;20188;-87
2022/03/13 00:52:17;;;;;;;4.60;3.40;;;21.70;51.70;;;;;;4993110;28;20650;-87
2022/03/13 00:54:43;;;;;;;3.60;3.20;;;21.70;51.70;;;;;;4975493;28;20535;-86
2022/03/13 00:57:09;;;;;;;3.60;3.30;;;21.70;51.60;;;;;;4976597;28;20809;-87
2022/03/13 00:59:35;;;;;;;3.53;3.00;;;21.60;51.50;;;;;;4976331;28;20429;-87
2022/03/13 01:02:01;;;;;;;3.80;3.30;;;21.70;51.60;;;;;;4974883;28;20188;-87
2022/03/13 01:04:28;;;;;;;3.57;3.17;;;21.60;51.50;;;;;;4960044;28;20420;-86
2022/03/13 01:06:53;;;;;;;3.33;3.00;;;21.70;51.60;;;;;;4991765;28;20425;-86
2022/03/13 01:09:19;;;;;;;3.30;3.00;;;21.60;51.60;;;;;;4972887;28;20440;-86
2022/03/13 01:11:48;;;;;;;3.60;3.07;;;21.60;51.50;;;;;;4975596;28;20429;-87
2022/03/13 01:14:16;;;;;;;3.27;2.97;;;21.60;51.50;;;;;;4975633;28;20206;-88
2022/03/13 01:16:43;;;;;;;3.73;3.10;;;21.60;51.60;;;;;;4992615;28;20413;-87
2022/03/13 01:19:09;;;;;;;3.77;3.10;;;21.60;51.50;;;;;;4976897;28;20459;-87
2022/03/13 01:21:39;;;;;;;3.73;3.33;;;21.60;51.50;;;;;;4974940;28;20425;-87
2022/03/13 01:24:05;;;;;;;3.53;3.20;;;21.60;51.50;;;;;;4992401;28;20536;-87
2022/03/13 01:26:36;;;;;;;3.30;3.00;;;21.60;51.50;;;;;;4992320;28;20417;-88
2022/03/13 01:29:06;;;;;;;3.00;2.70;;;21.60;51.60;;;;;;4975380;28;20192;-87
2022/03/13 01:31:36;;;;;;;3.20;2.90;;;21.60;52.10;;;;;;4975952;28;20433;-87
2022/03/13 01:34:05;;;;;;;3.63;3.20;;;21.60;51.60;;;;;;4975147;28;20613;-87
2022/03/13 01:36:30;;;;;;;3.10;2.80;;;21.60;51.60;;;;;;4968276;28;20445;-87
2022/03/13 01:38:58;;;;;;;3.57;3.10;;;21.60;51.60;;;;;;4975669;28;20839;-88
2022/03/13 01:41:27;;;;;;;3.80;3.40;;;21.60;51.60;;;;;;4974561;28;20181;-86
2022/03/13 01:43:54;;;;;;;3.80;3.03;;;21.60;51.60;;;;;;4975058;28;20460;-86
2022/03/13 01:46:19;;;;;;;3.50;2.90;;;21.60;51.50;;;;;;4975099;28;20436;-88
2022/03/13 01:49:02;;;;;;;4.60;3.60;;;21.70;51.60;;;;;;4974586;28;20440;-87
2022/03/13 01:51:28;;;;;;;4.70;3.07;;;21.60;51.50;;;;;;4992395;28;20536;-88
2022/03/13 01:53:59;;;;;;;3.60;3.30;;;21.60;51.60;;;;;;4974386;28;20461;-87
2022/03/13 01:56:25;;;;;;;3.00;2.70;;;21.60;51.60;;;;;;4974923;28;20418;-87
2022/03/13 01:58:53;;;;;;;3.10;2.80;;;21.60;51.60;;;;;;4975101;28;20511;-87
2022/03/13 02:01:21;;;;;;;3.70;3.03;;;21.60;51.60;;;;;;4976174;28;20481;-87
2022/03/13 02:03:48;;;;;;;3.30;3.00;;;21.60;51.50;;;;;;4974763;28;20788;-87
2022/03/13 02:06:14;;;;;;;3.77;3.20;;;21.60;51.50;;;;;;4976703;28;20437;-87
2022/03/13 02:08:44;;;;;;;3.33;2.47;;;21.60;51.50;;;;;;4974128;28;20440;-87
2022/03/13 02:11:14;;;;;;;3.50;3.03;;;21.60;51.50;;;;;;4974465;28;20424;-87
2022/03/13 02:13:40;;;;;;;3.10;2.70;;;21.60;51.50;;;;;;4974372;28;20465;-87
2022/03/13 02:16:08;;;;;;;3.03;2.43;;;21.60;51.50;;;;;;4974314;28;20471;-87
2022/03/13 02:18:35;;;;;;;3.90;2.93;;;21.60;51.50;;;;;;4967643;28;20920;-88
2022/03/13 02:21:01;;;;;;;2.40;2.20;;;21.60;51.60;;;;;;4991192;28;20436;-87
2022/03/13 02:23:30;;;;;;;3.50;3.00;;;21.60;51.50;;;;;;4963496;28;20440;-88
2022/03/13 02:26:01;;;;;;;3.13;2.90;;;21.60;51.50;;;;;;4974818;28;20421;-87
2022/03/13 02:28:30;;;;;;;3.43;3.03;;;21.60;51.50;;;;;;4974369;28;20432;-87
2022/03/13 02:31:03;;;;;;;3.30;3.00;;;21.60;51.50;;;;;;4974930;28;20923;-87
2022/03/13 02:33:30;;;;;;;3.67;3.37;;;21.60;51.50;;;;;;4974155;28;20408;-88
2022/03/13 02:36:01;;;;;;;3.50;2.93;;;21.60;51.50;;;;;;4973466;28;20424;-87
2022/03/13 02:38:28;;;;;;;2.87;2.67;;;21.60;51.50;;;;;;4973706;28;20417;-87
2022/03/13 02:40:55;;;;;;;2.40;2.20;;;21.60;51.50;;;;;;4990628;28;20452;-87
2022/03/13 02:43:21;;;;;;;2.93;2.63;;;21.60;51.50;;;;;;4972818;28;20972;-88
2022/03/13 02:45:47;;;;;;;2.73;2.53;;;21.60;51.50;;;;;;4970187;29;20450;-87
2022/03/13 02:48:16;;;;;;;3.30;2.90;;;21.60;51.50;;;;;;4979690;28;20414;-87
2022/03/13 02:50:42;;;;;;;3.80;2.97;;;21.60;51.50;;;;;;4972872;28;20773;-88
2022/03/13 02:53:09;;;;;;;2.50;2.27;;;21.60;51.50;;;;;;4991444;28;20472;-87
2022/03/13 02:55:36;;;;;;;3.33;2.50;;;21.60;51.50;;;;;;4991064;28;20197;-86
2022/03/13 02:58:02;;;;;;;3.33;2.70;;;21.60;51.50;;;;;;4975389;28;20488;-87
2022/03/13 03:00:44;;;;;;;2.83;2.53;;;21.60;51.50;;;;;;4991490;28;20413;-87
2022/03/13 03:03:13;;;;;;;2.80;2.60;;;21.60;51.50;;;;;;4991526;28;20421;-87
2022/03/13 03:05:39;;;;;;;2.90;2.70;;;21.60;51.50;;;;;;4974120;28;20473;-87
2022/03/13 03:08:07;;;;;;;3.07;2.80;;;21.60;51.50;;;;;;4974821;28;20428;-87
2022/03/13 03:10:34;;;;;;;3.43;3.00;;;21.60;51.50;;;;;;4974606;28;20178;-87
2022/03/13 03:13:00;;;;;;;3.13;2.83;;;21.60;51.50;;;;;;4991800;28;20409;-87
2022/03/13 03:15:27;;;;;;;3.17;2.67;;;21.60;51.50;;;;;;4974229;28;20464;-87
2022/03/13 03:17:53;;;;;;;3.60;3.10;;;21.50;51.50;;;;;;4973885;28;20501;-87
2022/03/13 03:20:21;;;;;;;2.77;2.57;;;21.50;51.50;;;;;;4974001;28;20425;-87
2022/03/13 03:22:50;;;;;;;2.70;2.50;;;21.50;51.50;;;;;;4974270;28;20423;-87
2022/03/13 03:25:24;;;;;;;2.63;2.07;;;21.50;51.50;;;;;;4973659;28;20445;-87
2022/03/13 03:27:51;;;;;;;3.10;2.80;;;21.50;51.50;;;;;;4991345;28;20401;-87
2022/03/13 03:30:28;;;;;;;3.23;2.93;;;21.50;51.50;;;;;;4991014;28;20417;-87
2022/03/13 03:32:55;;;;;;;3.00;2.70;;;21.50;51.60;;;;;;4990822;28;20926;-87
2022/03/13 03:35:23;;;;;;;2.57;2.33;;;21.50;51.60;;;;;;4990932;28;20465;-87
2022/03/13 03:37:52;;;;;;;2.43;2.13;;;21.50;51.60;;;;;;4973736;28;20460;-87
2022/03/13 03:40:25;;;;;;;3.30;2.53;;;21.50;51.60;;;;;;4991196;28;20477;-87
2022/03/13 03:42:54;;;;;;;2.80;2.50;;;21.50;51.60;;;;;;4974590;28;20487;-87
2022/03/13 03:45:20;;;;;;;2.67;2.37;;;21.40;51.50;;;;;;4973536;28;20928;-87
2022/03/13 03:47:46;;;;;;;2.67;2.30;;;21.40;51.50;;;;;;4973561;28;20428;-87
2022/03/13 03:50:13;;;;;;;2.93;2.50;;;21.40;51.60;;;;;;4957917;28;20278;-87
2022/03/13 03:52:39;;;;;;;2.60;2.10;;;21.40;51.50;;;;;;4990778;28;20510;-87
2022/03/13 03:55:05;;;;;;;2.87;2.13;;;21.40;51.50;;;;;;4973969;28;20523;-87
2022/03/13 03:57:31;;;;;;;2.40;2.10;;;21.40;51.50;;;;;;4973730;28;20417;-87
2022/03/13 03:59:57;;;;;;;2.87;2.23;;;21.40;51.50;;;;;;4990718;28;20429;-87
2022/03/13 04:02:23;;;;;;;2.73;2.43;;;21.40;51.50;;;;;;4974159;28;20919;-87
2022/03/13 04:04:49;;;;;;;3.33;2.50;;;21.40;51.60;;;;;;4973581;28;20192;-87
2022/03/13 04:07:14;;;;;;;2.57;2.03;;;21.40;51.60;;;;;;4990224;28;20201;-87
2022/03/13 04:09:41;;;;;;;2.33;2.13;;;21.40;51.60;;;;;;4991139;28;20173;-87
2022/03/13 04:12:08;;;;;;;2.70;2.50;;;21.40;51.60;;;;;;4991485;28;20421;-87
2022/03/13 04:14:37;;;;;;;2.47;2.27;;;21.40;51.60;;;;;;4974073;28;20533;-87
2022/03/13 04:17:04;;;;;;;2.70;2.20;;;21.40;51.60;;;;;;4973785;28;20421;-87
2022/03/13 04:19:30;;;;;;;3.43;2.63;;;21.40;51.60;;;;;;4991218;28;20771;-87
2022/03/13 04:21:56;;;;;;;2.53;2.33;;;21.40;51.60;;;;;;4990322;28;20449;-87
2022/03/13 04:24:22;;;;;;;3.60;2.50;;;21.40;51.60;;;;;;4989783;28;20516;-87
2022/03/13 04:26:49;;;;;;;2.90;2.60;;;21.40;51.60;;;;;;4990956;28;20421;-87
2022/03/13 04:29:16;;;;;;;2.67;2.10;;;21.40;51.60;;;;;;4973322;28;20430;-87
2022/03/13 04:31:44;;;;;;;2.37;2.17;;;21.40;51.70;;;;;;4982571;28;20429;-87
2022/03/13 04:34:11;;;;;;;2.60;2.17;;;21.40;51.60;;;;;;4976943;28;20461;-88
2022/03/13 04:36:41;;;;;;;2.57;2.27;;;21.40;51.70;;;;;;4977286;28;20417;-87
2022/03/13 04:39:09;;;;;;;2.90;2.60;;;21.40;51.70;;;;;;4977998;28;20409;-88
2022/03/13 04:41:35;;;;;;;4.10;2.50;;;21.40;51.70;;;;;;4977004;28;20421;-87
2022/03/13 04:44:01;;;;;;;3.13;2.73;;;21.30;51.60;;;;;;4976911;28;20413;-88
2022/03/13 04:46:27;;;;;;;2.93;2.23;;;21.30;51.60;;;;;;4993927;28;20420;-87
2022/03/13 04:48:53;;;;;;;2.20;1.97;;;21.40;51.70;;;;;;4993544;28;20440;-87
2022/03/13 04:51:20;;;;;;;3.20;2.90;;;21.30;51.60;;;;;;4994409;28;20448;-87
2022/03/13 04:53:46;;;;;;;2.67;2.47;;;21.30;51.60;;;;;;4976794;28;20464;-87
2022/03/13 04:56:12;;;;;;;2.50;2.30;;;21.30;51.60;;;;;;4977320;28;20431;-87
2022/03/13 04:58:38;;;;;;;2.77;2.30;;;21.40;51.70;;;;;;4993799;28;20417;-87
2022/03/13 05:01:05;;;;;;;2.67;2.47;;;21.40;51.70;;;;;;4960398;28;20429;-87
2022/03/13 05:03:33;;;;;;;2.50;2.30;;;21.30;51.60;;;;;;4976343;28;20181;-86
2022/03/13 05:06:00;;;;;;;2.73;2.00;;;21.30;51.60;;;;;;4976502;28;20468;-86
2022/03/13 05:08:26;;;;;;;2.87;2.53;;;21.30;51.60;;;;;;4976456;28;20425;-86
2022/03/13 05:10:53;;;;;;;2.80;2.50;;;21.30;51.60;;;;;;4976542;28;20448;-87
2022/03/13 05:13:21;;;;;;;2.67;1.93;;;21.30;51.60;;;;;;4975412;28;20946;-87
2022/03/13 05:15:48;;;;;;;2.23;2.03;;;21.30;51.60;;;;;;4992821;28;20468;-86
2022/03/13 05:18:14;;;;;;;2.60;2.30;;;21.30;51.60;;;;;;4975932;28;20440;-87
2022/03/13 05:20:40;;;;;;;3.03;2.20;;;21.30;51.60;;;;;;4978510;28;20432;-87
2022/03/13 05:23:08;;;;;;;2.97;1.93;;;21.30;51.60;;;;;;4993675;28;20174;-87
2022/03/13 05:25:35;;;;;;;1.83;1.73;;;21.30;51.60;;;;;;4977402;28;20457;-87
2022/03/13 05:28:02;;;;;;;2.30;2.10;;;21.30;51.60;;;;;;4995738;28;20409;-86
2022/03/13 05:30:28;;;;;;;3.07;2.53;;;21.30;51.60;;;;;;4976077;28;20475;-86
2022/03/13 05:32:55;;;;;;;2.93;2.50;;;21.30;51.60;;;;;;4995227;28;20449;-87
2022/03/13 05:35:22;;;;;;;2.70;2.50;;;21.30;51.60;;;;;;4977757;28;20484;-87
2022/03/13 05:37:48;;;;;;;2.30;1.90;;;21.30;51.60;;;;;;4992717;28;20413;-87
2022/03/13 05:40:17;;;;;;;2.30;2.00;;;21.30;51.60;;;;;;4992680;28;20409;-87
2022/03/13 05:42:45;;;;;;;2.10;1.90;;;21.30;51.60;;;;;;4975299;28;20406;-86
2022/03/13 05:45:13;;;;;;;3.23;2.30;;;21.20;51.60;;;;;;4992592;28;20417;-86
2022/03/13 05:47:47;;;;;;;2.03;1.80;;;21.30;51.60;;;;;;4992427;28;20406;-87
2022/03/13 05:50:14;;;;;;;2.27;1.93;;;21.20;51.50;;;;;;4975192;28;20413;-87
2022/03/13 05:52:41;;;;;;;1.70;1.57;;;21.20;51.60;;;;;;4992578;28;20500;-87
2022/03/13 05:55:11;;;;;;;2.00;1.80;;;21.20;51.60;;;;;;4991964;28;20464;-86
2022/03/13 05:57:37;;;;;;;2.20;2.00;;;21.20;51.60;;;;;;4991849;28;20413;-87
2022/03/13 06:00:05;;;;;;;2.23;2.03;;;21.20;51.60;;;;;;4974991;28;20417;-87
2022/03/13 06:02:32;;;;;;;2.23;2.03;;;21.20;51.60;;;;;;4992393;28;20421;-87
2022/03/13 06:04:58;;;;;;;2.50;2.30;;;21.20;51.60;;;;;;4992098;28;20570;-86
2022/03/13 06:07:24;;;;;;;2.57;1.97;;;21.20;51.60;;;;;;4992640;28;20417;-86
2022/03/13 06:09:51;;;;;;;2.40;2.20;;;21.20;51.60;;;;;;4974567;28;20424;-87
2022/03/13 06:12:17;;;;;;;2.40;2.20;;;21.20;51.60;;;;;;4990523;28;20209;-86
2022/03/13 06:14:43;;;;;;;2.13;1.93;;;21.20;51.60;;;;;;4990555;28;20464;-87
2022/03/13 06:17:09;;;;;;;1.90;1.70;;;21.20;51.60;;;;;;4979556;28;20188;-87
2022/03/13 06:19:39;;;;;;;2.33;2.13;;;21.20;51.60;;;;;;4976606;28;20445;-87
2022/03/13 06:22:05;;;;;;;2.40;2.20;;;21.30;51.70;;;;;;4990448;28;20177;-87
2022/03/13 06:24:32;;;;;;;2.00;1.80;;;21.20;51.60;;;;;;4976352;28;20519;-86
2022/03/13 06:26:58;;;;;;;2.20;1.97;;;21.20;51.60;;;;;;4993919;28;20472;-87
2022/03/13 06:29:24;;;;;;;2.40;2.20;;;21.20;51.60;;;;;;4973886;28;20437;-87
2022/03/13 06:31:50;;;;;;;2.20;1.80;;;21.30;51.60;;;;;;4961342;28;20194;-87
2022/03/13 06:34:16;;;;;;;2.87;2.40;;;21.30;51.60;;;;;;4976044;28;20465;-87
2022/03/13 06:36:42;;;;;;;2.13;1.80;;;21.30;51.60;;;;;;4988957;28;20192;-86
2022/03/13 06:39:09;;;;;;;3.03;2.30;;;21.30;51.60;;;;;;4990795;28;20185;-86
2022/03/13 06:41:36;;;;;;;2.70;2.00;;;21.30;51.60;;;;;;4990408;28;20416;-86
2022/03/13 06:44:02;;;;;;;2.27;1.83;;;21.30;51.60;;;;;;4972985;28;20425;-86
2022/03/13 06:46:27;;;;;;;2.33;1.70;;;21.30;51.60;;;;;;4972694;28;20434;-87
2022/03/13 06:48:53;;;;;;;2.10;1.90;;;21.30;51.60;;;;;;4973592;28;20193;-87
2022/03/13 06:51:20;;;;;;;2.20;1.90;;;21.30;51.60;;;;;;4989983;28;20241;-87
2022/03/13 06:53:45;;;;;;;2.03;1.80;;;21.30;51.60;;;;;;4971985;28;20208;-87
2022/03/13 06:56:12;;;;;;;2.53;2.33;;;21.30;51.60;;;;;;4972223;28;20473;-86
2022/03/13 06:58:39;;;;;;;2.80;1.90;;;21.30;51.60;;;;;;4972438;28;20425;-86
2022/03/13 07:01:06;;;;;;;1.87;1.50;;;21.30;51.60;;;;;;4990418;28;20456;-86
2022/03/13 07:03:33;;;;;;;1.90;1.70;;;21.30;51.60;;;;;;4972183;28;20444;-86
2022/03/13 07:06:03;;;;;;;1.93;1.67;;;21.30;51.60;;;;;;4992323;28;20471;-86
2022/03/13 07:08:32;;;;;;;2.43;1.90;;;21.30;51.60;;;;;;4974227;28;20758;-86
2022/03/13 07:11:03;;;;;;;2.10;1.73;;;21.40;51.70;;;;;;4990486;28;20449;-86
2022/03/13 07:13:32;;;;;;;2.10;1.90;;;21.30;51.60;;;;;;4990912;28;20410;-85
2022/03/13 07:16:03;;;;;;;2.17;1.63;;;21.40;51.70;;;;;;4974192;28;20441;-86
2022/03/13 07:18:30;;;;;;;2.03;1.77;;;21.40;51.60;;;;;;4972601;28;20444;-85
2022/03/13 07:20:56;;;;;;;1.90;1.70;;;21.40;51.60;;;;;;4989865;28;20401;-86
2022/03/13 07:23:24;;;;;;;2.60;2.13;;;21.40;51.60;;;;;;4966816;28;20420;-87
2022/03/13 07:25:51;;;;;;;2.20;1.83;;;21.50;51.60;;;;;;4971428;28;20445;-87
2022/03/13 07:28:17;;;;;;;2.10;1.80;;;21.50;51.60;;;;;;4972770;28;20417;-87
2022/03/13 07:30:43;;;;;;;2.67;2.17;;;21.50;51.60;;;;;;4973735;28;20523;-87
2022/03/13 07:33:10;;;;;;;2.47;1.77;;;21.60;51.60;;;;;;4975795;28;20432;-87
2022/03/13 07:35:36;;;;;;;2.33;1.80;;;21.60;51.60;;;;;;4989591;28;21005;-87
2022/03/13 07:38:03;;;;;;;2.17;1.77;;;21.60;51.50;;;;;;4972694;28;20421;-87
2022/03/13 07:40:29;;;;;;;1.93;1.67;;;21.60;51.50;;;;;;4990499;28;20781;-88
2022/03/13 07:42:55;;;;;;;2.10;1.90;;;21.60;51.50;;;;;;4973335;28;20540;-87
2022/03/13 07:45:21;;;;;;;1.43;1.33;;;21.60;51.40;;;;;;4973962;28;20547;-86
2022/03/13 07:47:47;;;;;;;2.07;1.73;;;21.60;51.50;;;;;;4972787;28;20189;-87
2022/03/13 07:50:12;;;;;;;2.33;1.93;;;21.70;51.50;;;;;;4993419;28;20424;-87
2022/03/13 07:52:38;;;;;;;1.77;1.60;;;21.70;51.50;;;;;;4973846;28;20428;-86
2022/03/13 07:55:05;;;;;;;3.10;2.20;;;21.70;51.50;;;;;;4990395;28;20213;-87
2022/03/13 07:57:37;;;;;;;1.77;1.67;;;21.70;51.40;;;;;;4975325;28;20405;-86
2022/03/13 08:00:03;;;;;;;2.00;1.70;;;21.70;51.40;;;;;;4977804;28;20460;-87
2022/03/13 08:02:31;;;;;;;2.20;1.83;;;21.70;51.40;;;;;;4975732;28;20413;-87
2022/03/13 08:04:56;;;;;;;1.77;1.50;;;21.70;51.40;;;;;;4980612;28;20421;-87
2022/03/13 08:07:22;;;;;;;2.17;1.83;;;21.70;51.40;;;;;;4978308;28;20472;-86
2022/03/13 08:09:48;;;;;;;2.37;1.80;;;21.80;51.40;;;;;;4994544;28;20188;-88
2022/03/13 08:12:14;;;;;;;1.80;1.70;;;21.80;51.40;;;;;;4976890;28;20272;-86
2022/03/13 08:14:40;;;;;;;2.10;1.90;;;21.80;51.50;;;;;;4976489;28;20208;-86
2022/03/13 08:17:05;;;;;;;2.10;1.70;;;21.80;51.50;;;;;;4994644;28;20448;-86
2022/03/13 08:19:31;;;;;;;1.67;1.50;;;21.80;51.40;;;;;;4992854;28;20177;-86
2022/03/13 08:21:57;;;;;;;2.10;1.80;;;21.80;51.40;;;;;;4994565;28;20237;-86
2022/03/13 08:24:24;;;;;;;1.83;1.70;;;21.80;51.40;;;;;;4977259;28;20198;-86
2022/03/13 08:26:53;;;;;;;1.97;1.77;;;21.80;51.40;;;;;;4993996;28;20177;-87
2022/03/13 08:29:18;;;;;;;1.93;1.73;;;21.80;51.40;;;;;;4994335;28;20523;-87
2022/03/13 08:31:47;;;;;;;1.63;1.53;;;21.80;51.40;;;;;;4993238;28;20436;-87
2022/03/13 08:34:15;;;;;;;1.70;1.60;;;21.80;51.40;;;;;;4976208;28;20479;-86
2022/03/13 08:36:51;;;;;;;2.00;1.47;;;21.80;51.40;;;;;;4976658;28;20417;-87
2022/03/13 08:39:20;;;;;;;1.63;1.40;;;21.80;51.40;;;;;;4978543;28;20440;-88
2022/03/13 08:41:46;;;;;;;1.70;1.50;;;21.80;51.40;;;;;;4976100;28;20447;-88
2022/03/13 08:44:11;;;;;;;1.70;1.50;;;21.80;51.40;;;;;;4975735;28;20291;-87
2022/03/13 08:46:40;;;;;;;1.60;1.50;;;21.80;51.40;;;;;;4974315;28;20264;-86
2022/03/13 08:49:07;;;;;;;2.97;1.77;;;21.80;51.40;;;;;;4979333;28;20915;-87
2022/03/13 08:51:33;;;;;;;2.00;1.63;;;21.80;51.50;;;;;;4994758;28;20421;-87
2022/03/13 08:53:59;;;;;;;2.30;1.87;;;21.80;51.40;;;;;;4979339;28;20472;-87
2022/03/13 08:56:26;;;;;;;2.00;1.70;;;21.80;51.40;;;;;;4996853;28;20428;-87
2022/03/13 08:58:53;;;;;;;1.67;1.40;;;21.80;51.40;;;;;;4977312;28;20247;-87
2022/03/13 09:01:19;;;;;;;1.87;1.63;;;21.80;51.40;;;;;;4980477;28;20429;-87
2022/03/13 09:03:45;;;;;;;2.03;1.70;;;21.80;52.00;;;;;;4978463;28;20429;-86
2022/03/13 09:06:21;;;;;;;1.80;1.50;;;21.80;51.40;;;;;;4978027;28;20425;-86
2022/03/13 09:09:03;;;;;;;2.57;1.97;;;21.80;51.40;;;;;;4977438;28;20281;-86
2022/03/13 09:11:47;;;;;;;1.90;1.70;;;21.80;51.40;;;;;;4997321;28;20398;-87
2022/03/13 09:15:10;;;;;;;1.80;1.50;;;21.80;51.40;;;;;;4981397;28;20542;-87
2022/03/13 09:17:55;;;;;;;1.53;1.30;;;21.80;51.40;;;;;;4983168;28;20413;-87
2022/03/13 09:20:28;;;;;;;1.70;1.50;;;21.80;51.50;;;;;;4981239;28;20409;-87
2022/03/13 09:23:36;;;;;;;1.80;1.40;;;21.80;51.50;;;;;;4979558;28;20480;-85
2022/03/13 09:26:52;;;;;;;2.57;1.77;;;21.80;51.50;;;;;;4987153;28;20440;-85
2022/03/13 09:33:43;;;;;;;;;;;;;;;;;;;;;
2022/03/13 09:37:03;;;;;;;1.73;1.40;;;21.80;51.50;;;;;;4966705;28;20461;-86
2022/03/13 09:39:31;;;;;;;1.90;1.70;;;21.80;51.60;;;;;;4974208;28;20423;-87
2022/03/13 09:42:01;;;;;;;1.67;1.57;;;21.70;51.50;;;;;;4976016;28;20421;-86
2022/03/13 09:44:28;;;;;;;1.83;1.40;;;21.70;51.50;;;;;;4977009;28;20398;-89
2022/03/13 09:46:56;;;;;;;1.53;1.43;;;21.70;51.50;;;;;;4977287;28;20413;-85
2022/03/13 09:49:27;;;;;;;2.20;1.80;;;21.80;51.50;;;;;;4976729;28;20397;-86
2022/03/13 09:51:53;;;;;;;1.57;1.30;;;21.80;51.50;;;;;;4977158;28;20409;-86
2022/03/13 09:54:26;;;;;;;1.73;1.53;;;21.80;51.50;;;;;;4976183;28;20460;-86
2022/03/13 09:56:52;;;;;;;2.00;1.70;;;21.80;51.50;;;;;;4975326;28;20424;-86
2022/03/13 09:59:21;;;;;;;2.03;1.40;;;21.80;51.40;;;;;;4993127;28;20428;-86
2022/03/13 10:01:47;;;;;;;1.73;1.40;;;21.80;51.40;;;;;;4975431;28;20456;-86
2022/03/13 10:04:13;;;;;;;1.50;1.33;;;21.80;51.40;;;;;;4960018;28;20417;-86
2022/03/13 10:07:01;;;;;;;1.80;1.60;;;21.80;51.40;;;;;;4993028;28;20429;-86
2022/03/13 10:09:29;;;;;;;1.60;1.30;;;21.80;51.40;;;;;;4992192;28;20421;-86
2022/03/13 10:12:05;;;;;;;1.90;1.80;;;21.70;51.30;;;;;;4975209;28;20452;-86
2022/03/13 10:14:31;;;;;;;1.87;1.57;;;21.80;51.40;;;;;;4974649;28;20468;-86
2022/03/13 10:16:57;;;;;;;1.50;1.30;;;21.70;51.30;;;;;;4974918;28;20543;-86
2022/03/13 10:19:27;;;;;;;1.60;1.30;;;21.70;51.30;;;;;;4992618;28;20260;-86
2022/03/13 10:22:14;;;;;;;1.40;1.30;;;21.70;51.30;;;;;;4995608;28;20408;-85
2022/03/13 10:24:51;;;;;;;1.60;1.33;;;21.70;51.30;;;;;;4979225;28;20440;-85
2022/03/13 10:27:34;;;;;;;1.40;1.30;;;21.70;51.30;;;;;;4978761;28;20456;-86
2022/03/13 10:30:14;;;;;;;1.90;1.70;;;21.70;51.30;;;;;;4964679;28;20433;-86
2022/03/13 10:32:43;;;;;;;2.27;1.60;;;21.70;51.30;;;;;;4962665;28;20492;-86
2022/03/13 10:35:12;;;;;;;1.60;1.40;;;21.70;51.30;;;;;;4996476;28;20460;-86
2022/03/13 10:37:48;;;;;;;1.47;1.33;;;21.70;51.30;;;;;;4980845;28;20421;-86
2022/03/13 11:06:39;;;;;;;1.60;1.40;;;21.70;51.40;;;;;;6067106;23;20678;-86
2022/03/13 11:13:08;;;;;;;;;;;;;;;;;;;;;
2022/03/13 11:19:05;;;;;;;1.60;1.47;;;21.60;51.30;;;;;;4901461;29;20810;-85
2022/03/13 11:21:35;;;;;;;1.30;1.20;;;21.60;51.40;;;;;;4899314;29;20428;-88
2022/03/13 11:29:44;;;;;;;1.63;1.13;;;21.60;51.40;;;;;;5289456;23;20493;-87
2022/03/13 11:32:32;;;;;;;1.37;1.27;;;21.60;51.30;;;;;;4976568;28;20428;-87
2022/03/13 11:35:19;;;;;;;1.93;1.73;;;21.60;51.30;;;;;;4977074;28;20993;-87
2022/03/13 11:38:44;;;;;;;1.83;1.50;;;21.60;51.40;;;;;;4978666;28;20421;-86
2022/03/13 11:42:10;;;;;;;1.57;1.47;;;21.60;51.40;;;;;;4988065;28;20416;-86
2022/03/13 11:45:32;;;;;;;;;;;;;;;;;;;;;
2022/03/13 11:49:23;;;;;;;1.50;1.37;;;21.60;51.40;;;;;;4935938;29;20419;-86
2022/03/13 12:04:34;;;;;;;;;;;;;;;;;;;;;
2022/03/13 12:38:55;;;;;;;1.97;1.47;;;21.50;51.50;;;;;;4987824;23;20491;-87
2022/03/13 12:41:27;;;;;;;1.40;1.20;;;21.50;51.40;;;;;;4985263;28;20452;-87
2022/03/13 12:43:54;;;;;;;2.17;1.50;;;21.50;52.00;;;;;;4969577;28;21004;-86
2022/03/13 12:46:27;;;;;;;1.40;1.20;;;21.50;51.40;;;;;;4990424;28;20417;-88
2022/03/13 12:48:54;;;;;;;1.40;1.30;;;21.50;51.40;;;;;;4994091;28;20476;-88
2022/03/13 12:51:36;;;;;;;2.43;1.50;;;21.50;51.40;;;;;;4990318;28;20413;-88
2022/03/13 12:54:14;;;;;;;1.33;1.23;;;21.50;51.40;;;;;;4973886;28;20487;-88
2022/03/13 12:57:04;;;;;;;1.57;1.27;;;21.50;51.40;;;;;;4980923;28;20433;-88
2022/03/13 12:59:32;;;;;;;1.93;1.40;;;21.50;51.40;;;;;;4972508;28;20411;-88
2022/03/13 13:03:05;;;;;;;;;;;;;;;;;;;;;
2022/03/13 13:22:11;;;;;;;1.53;1.10;;;21.40;51.40;;;;;;5446277;23;20507;-86
2022/03/13 13:25:34;;;;;;;;;;;;;;;;;;;;;
2022/03/13 13:28:35;;;;;;;1.70;1.23;;;21.50;51.40;;;;;;4998779;28;20436;-86
2022/03/13 13:31:17;;;;;;;1.20;1.10;;;21.50;51.50;;;;;;4966126;28;20413;-85
2022/03/13 14:04:08;;;;;;;1.40;1.23;;;21.40;51.40;;;;;;5111056;23;20475;-86
2022/03/13 14:07:01;;;;;;;1.30;1.10;;;21.40;51.40;;;;;;4991122;28;20409;-87
2022/03/13 14:09:27;;;;;;;1.50;1.23;;;21.40;51.40;;;;;;4955896;28;20433;-87
2022/03/13 14:11:53;;;;;;;1.53;1.30;;;21.40;51.40;;;;;;4972041;28;20452;-88
2022/03/13 14:14:20;;;;;;;1.60;1.20;;;21.40;51.40;;;;;;4970035;28;20461;-86
2022/03/13 14:16:46;;;;;;;1.10;1.00;;;21.40;51.40;;;;;;4968395;28;20213;-88
2022/03/13 14:19:11;;;;;;;1.37;1.00;;;21.40;51.40;;;;;;4968116;28;20421;-87
2022/03/13 14:21:38;;;;;;;1.30;1.10;;;21.40;51.40;;;;;;4968366;28;20448;-87
2022/03/13 14:24:04;;;;;;;1.57;1.03;;;21.40;51.40;;;;;;4968866;28;20185;-88
2022/03/13 14:26:30;;;;;;;1.53;1.10;;;21.40;51.40;;;;;;4988697;28;20456;-87
2022/03/13 14:28:57;;;;;;;1.33;1.10;;;21.40;51.40;;;;;;4968196;28;20824;-87
2022/03/13 14:31:23;;;;;;;1.50;1.20;;;21.40;51.30;;;;;;4983494;28;20417;-87
2022/03/13 14:33:49;;;;;;;1.20;1.00;;;21.40;51.30;;;;;;4984949;28;20424;-88
2022/03/13 14:36:15;;;;;;;1.23;1.13;;;21.40;51.30;;;;;;4983821;28;20448;-87
2022/03/13 14:38:47;;;;;;;1.20;1.10;;;21.40;51.40;;;;;;4966672;28;20418;-87
2022/03/13 14:41:13;;;;;;;1.27;1.00;;;21.40;51.30;;;;;;4968192;28;20433;-87
2022/03/13 14:43:38;;;;;;;1.23;1.10;;;21.40;51.30;;;;;;4982417;28;20421;-86
2022/03/13 14:46:04;;;;;;;1.30;1.07;;;21.40;51.30;;;;;;4973855;28;20185;-86
2022/03/13 14:48:30;;;;;;;1.30;1.13;;;21.40;51.30;;;;;;4974270;28;20226;-87
2022/03/13 14:50:56;;;;;;;1.33;1.00;;;21.40;51.30;;;;;;4955305;29;20174;-87
2022/03/13 14:53:22;;;;;;;1.20;0.97;;;21.40;51.30;;;;;;4954642;29;20174;-87
2022/03/13 14:55:48;;;;;;;1.60;1.30;;;21.40;51.30;;;;;;4954224;29;20454;-87
2022/03/13 14:58:15;;;;;;;1.57;1.10;;;21.40;51.30;;;;;;4970159;28;20186;-87
2022/03/13 15:00:42;;;;;;;1.10;1.00;;;21.40;51.30;;;;;;4971018;29;20422;-87
2022/03/13 15:03:07;;;;;;;1.07;0.90;;;21.40;51.30;;;;;;4954474;29;20466;-87
2022/03/13 15:05:33;;;;;;;1.67;1.07;;;21.40;51.30;;;;;;4970260;28;20432;-88
2022/03/13 15:07:59;;;;;;;1.50;1.20;;;21.40;51.30;;;;;;4954161;29;20178;-87
2022/03/13 15:10:28;;;;;;;1.20;1.10;;;21.40;51.30;;;;;;4953900;29;20178;-87
2022/03/13 15:12:55;;;;;;;1.70;1.40;;;21.40;51.30;;;;;;4953553;29;20181;-88
2022/03/13 15:15:22;;;;;;;1.27;1.13;;;21.40;51.40;;;;;;4954587;29;20489;-87
2022/03/13 15:17:49;;;;;;;1.37;1.00;;;21.30;51.30;;;;;;4953927;29;20913;-88
2022/03/13 15:20:41;;;;;;;1.30;1.07;;;21.40;51.40;;;;;;4971570;29;20461;-85
2022/03/13 15:23:32;;;;;;;1.20;1.00;;;21.30;51.30;;;;;;4954423;29;20446;-85
2022/03/13 15:25:58;;;;;;;1.20;1.10;;;21.30;51.30;;;;;;4953550;29;20438;-86
2022/03/13 15:28:31;;;;;;;1.20;1.10;;;21.30;51.30;;;;;;4971123;29;20418;-86
2022/03/13 15:30:57;;;;;;;1.33;1.23;;;21.30;51.40;;;;;;4954601;29;20418;-86